sensor_id;sensor_type;location;lat;lon;timestamp;temperature;humidity
15259;DHT22;34462;51.368;12.364;2024-02-04T00:00:24;9.00;99.90
15259;DHT22;34462;51.368;12.364;2024-02-04T00:02:52;9.00;99.90
15259;DHT22;34462;51.368;12.364;2024-02-04T00:05:21;9.00;99.90
15259;DHT22;34462;51.368;12.364;2024-02-04T00:07:49;9.00;99.90
15259;DHT22;34462;51.368;12.364;2024-02-04T00:10:19;9.00;99.90
15259;DHT22;34462;51.368;12.364;2024-02-04T00:12:48;9.00;99.90
15259;DHT22;34462;51.368;12.364;2024-02-04T00:15:16;8.90;99.90
15259;DHT22;34462;51.368;12.364;2024-02-04T00:17:44;9.00;99.90
15259;DHT22;34462;51.368;12.364;2024-02-04T00:20:12;8.90;99.90
15259;DHT22;34462;51.368;12.364;2024-02-04T00:22:43;8.90;99.90
15259;DHT22;34462;51.368;12.364;2024-02-04T00:25:11;8.90;99.90
15259;DHT22;34462;51.368;12.364;2024-02-04T00:27:43;8.90;99.90
15259;DHT22;34462;51.368;12.364;2024-02-04T00:30:11;8.90;99.90
15259;DHT22;34462;51.368;12.364;2024-02-04T00:32:40;8.80;99.90
15259;DHT22;34462;51.368;12.364;2024-02-04T00:35:08;8.70;99.90
15259;DHT22;34462;51.368;12.364;2024-02-04T00:37:36;8.70;99.90
15259;DHT22;34462;51.368;12.364;2024-02-04T00:40:05;8.60;99.90
15259;DHT22;34462;51.368;12.364;2024-02-04T00:42:34;8.60;99.90
15259;DHT22;34462;51.368;12.364;2024-02-04T00:45:05;8.50;99.90
15259;DHT22;34462;51.368;12.364;2024-02-04T00:47:33;8.50;99.90
15259;DHT22;34462;51.368;12.364;2024-02-04T00:50:02;8.50;99.90
15259;DHT22;34462;51.368;12.364;2024-02-04T00:52:30;8.50;99.90
15259;DHT22;34462;51.368;12.364;2024-02-04T00:54:59;8.40;99.90
15259;DHT22;34462;51.368;12.364;2024-02-04T00:57:27;8.40;99.90
15259;DHT22;34462;51.368;12.364;2024-02-04T00:59:55;8.50;99.90
15259;DHT22;34462;51.368;12.364;2024-02-04T01:02:25;8.50;99.90
15259;DHT22;34462;51.368;12.364;2024-02-04T01:04:53;8.50;99.90
15259;DHT22;34462;51.368;12.364;2024-02-04T01:07:21;8.50;99.90
15259;DHT22;34462;51.368;12.364;2024-02-04T01:09:50;8.50;99.90
15259;DHT22;34462;51.368;12.364;2024-02-04T01:12:18;8.60;99.90
15259;DHT22;34462;51.368;12.364;2024-02-04T01:14:46;8.60;99.90
15259;DHT22;34462;51.368;12.364;2024-02-04T01:17:14;8.60;99.90
15259;DHT22;34462;51.368;12.364;2024-02-04T01:19:44;8.60;99.90
15259;DHT22;34462;51.368;12.364;2024-02-04T01:22:12;8.70;99.90
15259;DHT22;34462;51.368;12.364;2024-02-04T01:24:40;8.70;99.90
15259;DHT22;34462;51.368;12.364;2024-02-04T01:27:09;8.70;99.90
15259;DHT22;34462;51.368;12.364;2024-02-04T01:29:37;8.70;99.90
15259;DHT22;34462;51.368;12.364;2024-02-04T01:32:06;8.70;99.90
15259;DHT22;34462;51.368;12.364;2024-02-04T01:34:34;8.70;99.90
15259;DHT22;34462;51.368;12.364;2024-02-04T01:37:04;8.70;99.90
15259;DHT22;34462;51.368;12.364;2024-02-04T01:39:32;8.70;99.90
15259;DHT22;34462;51.368;12.364;2024-02-04T01:42:01;8.70;99.90
15259;DHT22;34462;51.368;12.364;2024-02-04T01:44:29;8.70;99.90
15259;DHT22;34462;51.368;12.364;2024-02-04T01:46:57;8.60;99.90
15259;DHT22;34462;51.368;12.364;2024-02-04T01:49:26;8.70;99.90
15259;DHT22;34462;51.368;12.364;2024-02-04T01:51:55;8.70;99.90
15259;DHT22;34462;51.368;12.364;2024-02-04T01:54:27;8.60;99.90
15259;DHT22;34462;51.368;12.364;2024-02-04T01:56:55;8.60;99.90
15259;DHT22;34462;51.368;12.364;2024-02-04T01:59:29;8.60;99.90
15259;DHT22;34462;51.368;12.364;2024-02-04T02:01:59;8.60;99.90
15259;DHT22;34462;51.368;12.364;2024-02-04T02:04:28;8.50;99.90
15259;DHT22;34462;51.368;12.364;2024-02-04T02:06:56;8.60;99.90
15259;DHT22;34462;51.368;12.364;2024-02-04T02:09:28;8.60;99.90
15259;DHT22;34462;51.368;12.364;2024-02-04T02:12:01;8.60;99.90
15259;DHT22;34462;51.368;12.364;2024-02-04T02:14:44;8.70;99.90
15259;DHT22;34462;51.368;12.364;2024-02-04T02:17:18;8.70;99.90
15259;DHT22;34462;51.368;12.364;2024-02-04T02:19:56;8.70;99.90
15259;DHT22;34462;51.368;12.364;2024-02-04T02:22:37;8.70;99.90
15259;DHT22;34462;51.368;12.364;2024-02-04T02:25:20;8.70;99.90
15259;DHT22;34462;51.368;12.364;2024-02-04T02:27:50;8.70;99.90
15259;DHT22;34462;51.368;12.364;2024-02-04T02:30:19;8.60;99.90
15259;DHT22;34462;51.368;12.364;2024-02-04T02:32:48;8.50;99.90
15259;DHT22;34462;51.368;12.364;2024-02-04T02:35:17;8.40;99.90
15259;DHT22;34462;51.368;12.364;2024-02-04T02:37:51;8.40;99.90
15259;DHT22;34462;51.368;12.364;2024-02-04T02:40:30;8.30;99.90
15259;DHT22;34462;51.368;12.364;2024-02-04T02:43:05;8.30;99.90
15259;DHT22;34462;51.368;12.364;2024-02-04T02:45:35;8.30;99.90
15259;DHT22;34462;51.368;12.364;2024-02-04T02:48:06;8.30;99.90
15259;DHT22;34462;51.368;12.364;2024-02-04T02:50:35;8.10;99.90
15259;DHT22;34462;51.368;12.364;2024-02-04T02:53:04;8.10;99.90
15259;DHT22;34462;51.368;12.364;2024-02-04T02:55:33;8.00;99.90
15259;DHT22;34462;51.368;12.364;2024-02-04T02:58:02;8.00;99.90
15259;DHT22;34462;51.368;12.364;2024-02-04T03:00:30;7.90;99.90
15259;DHT22;34462;51.368;12.364;2024-02-04T03:02:59;7.80;99.90
15259;DHT22;34462;51.368;12.364;2024-02-04T03:05:27;7.80;99.90
15259;DHT22;34462;51.368;12.364;2024-02-04T03:07:55;7.90;99.90
15259;DHT22;34462;51.368;12.364;2024-02-04T03:10:24;7.90;99.90
15259;DHT22;34462;51.368;12.364;2024-02-04T03:12:53;7.90;99.90
15259;DHT22;34462;51.368;12.364;2024-02-04T03:15:21;7.90;99.90
15259;DHT22;34462;51.368;12.364;2024-02-04T03:17:50;7.90;99.90
15259;DHT22;34462;51.368;12.364;2024-02-04T03:20:18;7.90;99.90
15259;DHT22;34462;51.368;12.364;2024-02-04T03:22:47;8.10;99.90
15259;DHT22;34462;51.368;12.364;2024-02-04T03:25:16;8.00;99.90
15259;DHT22;34462;51.368;12.364;2024-02-04T03:27:44;8.10;99.90
15259;DHT22;34462;51.368;12.364;2024-02-04T03:30:14;8.10;99.90
15259;DHT22;34462;51.368;12.364;2024-02-04T03:32:42;8.10;99.90
15259;DHT22;34462;51.368;12.364;2024-02-04T03:35:10;8.20;99.90
15259;DHT22;34462;51.368;12.364;2024-02-04T03:37:39;8.40;99.90
15259;DHT22;34462;51.368;12.364;2024-02-04T03:40:08;8.30;99.90
15259;DHT22;34462;51.368;12.364;2024-02-04T03:42:37;8.30;99.90
15259;DHT22;34462;51.368;12.364;2024-02-04T03:45:07;8.40;99.90
15259;DHT22;34462;51.368;12.364;2024-02-04T03:47:38;8.50;99.90
15259;DHT22;34462;51.368;12.364;2024-02-04T03:50:06;8.40;99.90
15259;DHT22;34462;51.368;12.364;2024-02-04T03:52:35;8.40;99.90
15259;DHT22;34462;51.368;12.364;2024-02-04T03:55:04;8.40;99.90
15259;DHT22;34462;51.368;12.364;2024-02-04T03:57:32;8.40;99.90
15259;DHT22;34462;51.368;12.364;2024-02-04T04:00:01;8.40;99.90
15259;DHT22;34462;51.368;12.364;2024-02-04T04:02:29;8.40;99.90
15259;DHT22;34462;51.368;12.364;2024-02-04T04:04:59;8.40;99.90
15259;DHT22;34462;51.368;12.364;2024-02-04T04:07:27;8.50;99.90
15259;DHT22;34462;51.368;12.364;2024-02-04T04:09:56;8.50;99.90
15259;DHT22;34462;51.368;12.364;2024-02-04T04:12:24;8.50;99.90
15259;DHT22;34462;51.368;12.364;2024-02-04T04:14:52;8.30;99.90
15259;DHT22;34462;51.368;12.364;2024-02-04T04:17:20;8.50;99.90
15259;DHT22;34462;51.368;12.364;2024-02-04T04:19:49;8.50;99.90
15259;DHT22;34462;51.368;12.364;2024-02-04T04:22:18;8.50;99.90
15259;DHT22;34462;51.368;12.364;2024-02-04T04:24:46;8.50;99.90
15259;DHT22;34462;51.368;12.364;2024-02-04T04:27:15;8.50;99.90
15259;DHT22;34462;51.368;12.364;2024-02-04T04:29:43;8.50;99.90
15259;DHT22;34462;51.368;12.364;2024-02-04T04:32:11;8.60;99.90
15259;DHT22;34462;51.368;12.364;2024-02-04T04:34:39;8.60;99.90
15259;DHT22;34462;51.368;12.364;2024-02-04T04:37:08;8.60;99.90
15259;DHT22;34462;51.368;12.364;2024-02-04T04:39:37;8.60;99.90
15259;DHT22;34462;51.368;12.364;2024-02-04T04:42:06;8.60;99.90
15259;DHT22;34462;51.368;12.364;2024-02-04T04:44:34;8.60;99.90
15259;DHT22;34462;51.368;12.364;2024-02-04T04:47:02;8.60;99.90
15259;DHT22;34462;51.368;12.364;2024-02-04T04:49:30;8.60;99.90
15259;DHT22;34462;51.368;12.364;2024-02-04T04:51:59;8.50;99.90
15259;DHT22;34462;51.368;12.364;2024-02-04T04:54:27;8.50;99.90
15259;DHT22;34462;51.368;12.364;2024-02-04T04:56:57;8.50;99.90
15259;DHT22;34462;51.368;12.364;2024-02-04T04:59:25;8.50;99.90
15259;DHT22;34462;51.368;12.364;2024-02-04T05:01:53;8.50;99.90
15259;DHT22;34462;51.368;12.364;2024-02-04T05:04:22;8.50;99.90
15259;DHT22;34462;51.368;12.364;2024-02-04T05:06:52;8.40;99.90
15259;DHT22;34462;51.368;12.364;2024-02-04T05:09:20;8.50;99.90
15259;DHT22;34462;51.368;12.364;2024-02-04T05:11:49;8.50;99.90
15259;DHT22;34462;51.368;12.364;2024-02-04T05:14:18;8.60;99.90
15259;DHT22;34462;51.368;12.364;2024-02-04T05:16:46;8.50;99.90
15259;DHT22;34462;51.368;12.364;2024-02-04T05:19:15;8.50;99.90
15259;DHT22;34462;51.368;12.364;2024-02-04T05:21:43;8.60;99.90
15259;DHT22;34462;51.368;12.364;2024-02-04T05:24:11;8.60;99.90
15259;DHT22;34462;51.368;12.364;2024-02-04T05:26:39;8.60;99.90
15259;DHT22;34462;51.368;12.364;2024-02-04T05:29:08;8.50;99.90
15259;DHT22;34462;51.368;12.364;2024-02-04T05:31:41;8.50;99.90
15259;DHT22;34462;51.368;12.364;2024-02-04T05:34:10;8.50;99.90
15259;DHT22;34462;51.368;12.364;2024-02-04T05:36:38;8.40;99.90
15259;DHT22;34462;51.368;12.364;2024-02-04T05:39:11;8.40;99.90
15259;DHT22;34462;51.368;12.364;2024-02-04T05:41:41;8.40;99.90
15259;DHT22;34462;51.368;12.364;2024-02-04T05:44:09;8.30;99.90
15259;DHT22;34462;51.368;12.364;2024-02-04T05:46:38;8.30;99.90
15259;DHT22;34462;51.368;12.364;2024-02-04T05:49:08;8.40;99.90
15259;DHT22;34462;51.368;12.364;2024-02-04T05:51:38;8.40;99.90
15259;DHT22;34462;51.368;12.364;2024-02-04T05:54:07;8.30;99.90
15259;DHT22;34462;51.368;12.364;2024-02-04T05:56:36;8.30;99.90
15259;DHT22;34462;51.368;12.364;2024-02-04T05:59:04;8.40;99.90
15259;DHT22;34462;51.368;12.364;2024-02-04T06:01:33;8.40;99.90
15259;DHT22;34462;51.368;12.364;2024-02-04T06:04:01;8.40;99.90
15259;DHT22;34462;51.368;12.364;2024-02-04T06:06:32;8.40;99.90
15259;DHT22;34462;51.368;12.364;2024-02-04T06:09:00;8.40;99.90
15259;DHT22;34462;51.368;12.364;2024-02-04T06:11:29;8.40;99.90
15259;DHT22;34462;51.368;12.364;2024-02-04T06:13:57;8.40;99.90
15259;DHT22;34462;51.368;12.364;2024-02-04T06:16:25;8.40;99.90
15259;DHT22;34462;51.368;12.364;2024-02-04T06:18:53;8.50;99.90
15259;DHT22;34462;51.368;12.364;2024-02-04T06:21:24;8.50;99.90
15259;DHT22;34462;51.368;12.364;2024-02-04T06:23:54;8.50;99.90
15259;DHT22;34462;51.368;12.364;2024-02-04T06:26:23;8.50;99.90
15259;DHT22;34462;51.368;12.364;2024-02-04T06:28:51;8.60;99.90
15259;DHT22;34462;51.368;12.364;2024-02-04T06:31:20;8.60;99.90
15259;DHT22;34462;51.368;12.364;2024-02-04T06:33:48;8.60;99.90
15259;DHT22;34462;51.368;12.364;2024-02-04T06:36:16;8.60;99.90
15259;DHT22;34462;51.368;12.364;2024-02-04T06:38:44;8.60;99.90
15259;DHT22;34462;51.368;12.364;2024-02-04T06:41:14;8.70;99.90
15259;DHT22;34462;51.368;12.364;2024-02-04T06:43:42;8.70;99.90
15259;DHT22;34462;51.368;12.364;2024-02-04T06:46:10;8.70;99.90
15259;DHT22;34462;51.368;12.364;2024-02-04T06:48:39;8.70;99.90
15259;DHT22;34462;51.368;12.364;2024-02-04T06:51:07;8.80;99.90
15259;DHT22;34462;51.368;12.364;2024-02-04T06:53:35;8.80;99.90
15259;DHT22;34462;51.368;12.364;2024-02-04T06:56:04;8.80;99.90
15259;DHT22;34462;51.368;12.364;2024-02-04T06:58:36;8.90;99.90
15259;DHT22;34462;51.368;12.364;2024-02-04T07:01:05;8.90;99.90
15259;DHT22;34462;51.368;12.364;2024-02-04T07:03:33;9.20;99.90
15259;DHT22;34462;51.368;12.364;2024-02-04T07:06:01;8.90;99.90
15259;DHT22;34462;51.368;12.364;2024-02-04T07:08:30;8.90;99.90
15259;DHT22;34462;51.368;12.364;2024-02-04T07:10:58;8.90;99.90
15259;DHT22;34462;51.368;12.364;2024-02-04T07:13:26;9.00;99.90
15259;DHT22;34462;51.368;12.364;2024-02-04T07:15:56;9.00;99.90
15259;DHT22;34462;51.368;12.364;2024-02-04T07:18:24;9.00;99.90
15259;DHT22;34462;51.368;12.364;2024-02-04T07:20:53;9.10;99.90
15259;DHT22;34462;51.368;12.364;2024-02-04T07:23:21;9.10;99.90
15259;DHT22;34462;51.368;12.364;2024-02-04T07:25:49;9.10;99.90
15259;DHT22;34462;51.368;12.364;2024-02-04T07:28:17;9.10;99.90
15259;DHT22;34462;51.368;12.364;2024-02-04T07:30:45;9.10;99.90
15259;DHT22;34462;51.368;12.364;2024-02-04T07:33:15;9.10;99.90
15259;DHT22;34462;51.368;12.364;2024-02-04T07:35:43;9.10;99.90
15259;DHT22;34462;51.368;12.364;2024-02-04T07:38:11;9.10;99.90
15259;DHT22;34462;51.368;12.364;2024-02-04T07:40:40;9.10;99.90
15259;DHT22;34462;51.368;12.364;2024-02-04T07:43:08;9.10;99.90
15259;DHT22;34462;51.368;12.364;2024-02-04T07:45:36;9.20;99.90
15259;DHT22;34462;51.368;12.364;2024-02-04T07:48:06;9.20;99.90
15259;DHT22;34462;51.368;12.364;2024-02-04T07:50:37;9.20;99.90
15259;DHT22;34462;51.368;12.364;2024-02-04T07:53:06;9.30;99.90
15259;DHT22;34462;51.368;12.364;2024-02-04T07:55:34;9.30;99.90
15259;DHT22;34462;51.368;12.364;2024-02-04T07:58:02;9.40;99.90
15259;DHT22;34462;51.368;12.364;2024-02-04T08:00:31;9.40;99.90
15259;DHT22;34462;51.368;12.364;2024-02-04T08:02:59;9.50;99.90
15259;DHT22;34462;51.368;12.364;2024-02-04T08:05:27;9.50;99.90
15259;DHT22;34462;51.368;12.364;2024-02-04T08:07:57;9.50;99.90
15259;DHT22;34462;51.368;12.364;2024-02-04T08:10:26;9.50;99.90
15259;DHT22;34462;51.368;12.364;2024-02-04T08:12:54;9.50;99.90
15259;DHT22;34462;51.368;12.364;2024-02-04T08:15:22;9.50;99.90
15259;DHT22;34462;51.368;12.364;2024-02-04T08:17:51;9.50;99.90
15259;DHT22;34462;51.368;12.364;2024-02-04T08:20:19;9.50;99.90
15259;DHT22;34462;51.368;12.364;2024-02-04T08:22:48;9.50;99.90
15259;DHT22;34462;51.368;12.364;2024-02-04T08:25:17;9.60;99.90
15259;DHT22;34462;51.368;12.364;2024-02-04T08:27:46;9.60;99.90
15259;DHT22;34462;51.368;12.364;2024-02-04T08:30:15;9.60;99.90
15259;DHT22;34462;51.368;12.364;2024-02-04T08:32:45;9.70;99.90
15259;DHT22;34462;51.368;12.364;2024-02-04T08:35:14;9.70;99.90
15259;DHT22;34462;51.368;12.364;2024-02-04T08:37:42;9.80;99.90
15259;DHT22;34462;51.368;12.364;2024-02-04T08:40:11;9.90;99.90
15259;DHT22;34462;51.368;12.364;2024-02-04T08:42:41;9.90;99.90
15259;DHT22;34462;51.368;12.364;2024-02-04T08:45:10;9.90;99.90
15259;DHT22;34462;51.368;12.364;2024-02-04T08:47:38;9.90;99.90
15259;DHT22;34462;51.368;12.364;2024-02-04T08:50:08;9.90;99.90
15259;DHT22;34462;51.368;12.364;2024-02-04T08:52:38;9.90;99.90
15259;DHT22;34462;51.368;12.364;2024-02-04T08:55:07;9.90;99.90
15259;DHT22;34462;51.368;12.364;2024-02-04T08:57:36;9.90;99.90
15259;DHT22;34462;51.368;12.364;2024-02-04T09:00:07;9.90;99.90
15259;DHT22;34462;51.368;12.364;2024-02-04T09:02:38;10.00;99.90
15259;DHT22;34462;51.368;12.364;2024-02-04T09:05:07;9.90;99.90
15259;DHT22;34462;51.368;12.364;2024-02-04T09:07:36;9.90;99.90
15259;DHT22;34462;51.368;12.364;2024-02-04T09:10:06;9.90;99.90
15259;DHT22;34462;51.368;12.364;2024-02-04T09:12:35;10.00;99.90
15259;DHT22;34462;51.368;12.364;2024-02-04T09:15:05;10.00;99.90
15259;DHT22;34462;51.368;12.364;2024-02-04T09:17:35;9.90;99.90
15259;DHT22;34462;51.368;12.364;2024-02-04T09:20:04;10.00;99.90
15259;DHT22;34462;51.368;12.364;2024-02-04T09:22:34;10.00;99.90
15259;DHT22;34462;51.368;12.364;2024-02-04T09:25:03;9.90;99.90
15259;DHT22;34462;51.368;12.364;2024-02-04T09:27:32;9.90;99.90
15259;DHT22;34462;51.368;12.364;2024-02-04T09:30:01;9.90;99.90
15259;DHT22;34462;51.368;12.364;2024-02-04T09:32:31;9.90;99.90
15259;DHT22;34462;51.368;12.364;2024-02-04T09:35:01;9.80;99.90
15259;DHT22;34462;51.368;12.364;2024-02-04T09:37:30;9.70;99.90
15259;DHT22;34462;51.368;12.364;2024-02-04T09:39:58;9.70;99.90
15259;DHT22;34462;51.368;12.364;2024-02-04T09:42:27;9.60;99.90
15259;DHT22;34462;51.368;12.364;2024-02-04T09:44:56;9.60;99.90
15259;DHT22;34462;51.368;12.364;2024-02-04T09:47:25;9.60;99.90
15259;DHT22;34462;51.368;12.364;2024-02-04T09:49:56;9.50;99.90
15259;DHT22;34462;51.368;12.364;2024-02-04T09:52:28;9.50;99.90
15259;DHT22;34462;51.368;12.364;2024-02-04T09:55:00;9.50;99.90
15259;DHT22;34462;51.368;12.364;2024-02-04T09:57:30;9.60;99.90
15259;DHT22;34462;51.368;12.364;2024-02-04T10:00:00;9.60;99.90
15259;DHT22;34462;51.368;12.364;2024-02-04T10:02:32;9.60;99.90
15259;DHT22;34462;51.368;12.364;2024-02-04T10:05:02;9.60;99.90
15259;DHT22;34462;51.368;12.364;2024-02-04T10:07:31;9.60;99.90
15259;DHT22;34462;51.368;12.364;2024-02-04T10:09:59;9.70;99.90
15259;DHT22;34462;51.368;12.364;2024-02-04T10:12:28;9.70;99.90
15259;DHT22;34462;51.368;12.364;2024-02-04T10:14:56;9.70;99.90
15259;DHT22;34462;51.368;12.364;2024-02-04T10:17:25;9.70;99.90
15259;DHT22;34462;51.368;12.364;2024-02-04T10:19:53;9.80;99.90
15259;DHT22;34462;51.368;12.364;2024-02-04T10:22:24;10.00;99.90
15259;DHT22;34462;51.368;12.364;2024-02-04T10:24:54;9.90;99.90
15259;DHT22;34462;51.368;12.364;2024-02-04T10:27:33;9.90;99.90
15259;DHT22;34462;51.368;12.364;2024-02-04T10:30:04;9.90;99.90
15259;DHT22;34462;51.368;12.364;2024-02-04T10:32:34;9.90;99.90
15259;DHT22;34462;51.368;12.364;2024-02-04T10:35:02;10.00;99.90
15259;DHT22;34462;51.368;12.364;2024-02-04T10:37:32;10.10;99.90
15259;DHT22;34462;51.368;12.364;2024-02-04T10:40:01;10.10;99.90
15259;DHT22;34462;51.368;12.364;2024-02-04T10:42:30;10.00;99.90
15259;DHT22;34462;51.368;12.364;2024-02-04T10:45:00;9.90;99.90
15259;DHT22;34462;51.368;12.364;2024-02-04T10:47:35;9.90;99.90
15259;DHT22;34462;51.368;12.364;2024-02-04T10:50:08;9.80;99.90
15259;DHT22;34462;51.368;12.364;2024-02-04T10:52:44;9.80;99.90
15259;DHT22;34462;51.368;12.364;2024-02-04T10:55:17;9.80;99.90
15259;DHT22;34462;51.368;12.364;2024-02-04T10:57:52;9.80;99.90
15259;DHT22;34462;51.368;12.364;2024-02-04T11:00:20;9.80;99.90
15259;DHT22;34462;51.368;12.364;2024-02-04T11:02:49;9.90;99.90
15259;DHT22;34462;51.368;12.364;2024-02-04T11:05:21;9.80;99.90
15259;DHT22;34462;51.368;12.364;2024-02-04T11:07:53;9.80;99.90
15259;DHT22;34462;51.368;12.364;2024-02-04T11:10:22;9.90;99.90
15259;DHT22;34462;51.368;12.364;2024-02-04T11:12:52;9.90;99.90
15259;DHT22;34462;51.368;12.364;2024-02-04T11:15:24;9.80;99.90
15259;DHT22;34462;51.368;12.364;2024-02-04T11:21:37;9.80;99.90
15259;DHT22;34462;51.368;12.364;2024-02-04T11:24:45;9.80;99.90
15259;DHT22;34462;51.368;12.364;2024-02-04T11:27:27;9.70;99.90
15259;DHT22;34462;51.368;12.364;2024-02-04T11:29:56;9.80;99.90
15259;DHT22;34462;51.368;12.364;2024-02-04T11:32:24;9.80;99.90
15259;DHT22;34462;51.368;12.364;2024-02-04T11:34:53;9.90;99.90
15259;DHT22;34462;51.368;12.364;2024-02-04T11:37:23;10.00;99.90
15259;DHT22;34462;51.368;12.364;2024-02-04T11:39:54;10.10;99.90
15259;DHT22;34462;51.368;12.364;2024-02-04T11:42:25;10.20;99.90
15259;DHT22;34462;51.368;12.364;2024-02-04T11:45:09;10.10;99.90
15259;DHT22;34462;51.368;12.364;2024-02-04T11:47:40;10.20;99.90
15259;DHT22;34462;51.368;12.364;2024-02-04T11:50:09;10.10;99.90
15259;DHT22;34462;51.368;12.364;2024-02-04T11:52:39;10.10;99.90
15259;DHT22;34462;51.368;12.364;2024-02-04T11:55:15;10.10;99.90
15259;DHT22;34462;51.368;12.364;2024-02-04T11:57:44;10.10;99.90
15259;DHT22;34462;51.368;12.364;2024-02-04T12:00:14;10.10;99.90
15259;DHT22;34462;51.368;12.364;2024-02-04T12:02:43;10.20;99.90
15259;DHT22;34462;51.368;12.364;2024-02-04T12:05:12;10.40;99.90
15259;DHT22;34462;51.368;12.364;2024-02-04T12:07:41;10.40;99.90
15259;DHT22;34462;51.368;12.364;2024-02-04T12:10:11;10.40;99.90
15259;DHT22;34462;51.368;12.364;2024-02-04T12:12:41;10.40;99.90
15259;DHT22;34462;51.368;12.364;2024-02-04T12:15:10;10.40;99.90
15259;DHT22;34462;51.368;12.364;2024-02-04T12:17:38;10.40;99.90
15259;DHT22;34462;51.368;12.364;2024-02-04T12:20:07;10.40;99.90
15259;DHT22;34462;51.368;12.364;2024-02-04T12:22:37;10.40;99.90
15259;DHT22;34462;51.368;12.364;2024-02-04T12:25:06;10.40;99.90
15259;DHT22;34462;51.368;12.364;2024-02-04T12:27:35;10.30;99.90
15259;DHT22;34462;51.368;12.364;2024-02-04T12:30:06;10.10;99.90
15259;DHT22;34462;51.368;12.364;2024-02-04T12:32:36;10.10;99.90
15259;DHT22;34462;51.368;12.364;2024-02-04T12:35:06;10.10;99.90
15259;DHT22;34462;51.368;12.364;2024-02-04T12:37:36;10.00;99.90
15259;DHT22;34462;51.368;12.364;2024-02-04T12:40:05;10.10;99.90
15259;DHT22;34462;51.368;12.364;2024-02-04T12:42:34;10.20;99.90
15259;DHT22;34462;51.368;12.364;2024-02-04T12:45:05;10.20;99.90
15259;DHT22;34462;51.368;12.364;2024-02-04T12:47:33;10.30;99.90
15259;DHT22;34462;51.368;12.364;2024-02-04T12:50:01;10.40;99.90
15259;DHT22;34462;51.368;12.364;2024-02-04T12:52:30;10.50;99.90
15259;DHT22;34462;51.368;12.364;2024-02-04T12:55:02;10.50;99.90
15259;DHT22;34462;51.368;12.364;2024-02-04T12:57:32;10.50;99.90
15259;DHT22;34462;51.368;12.364;2024-02-04T13:00:08;10.50;99.90
15259;DHT22;34462;51.368;12.364;2024-02-04T13:02:37;10.50;99.90
15259;DHT22;34462;51.368;12.364;2024-02-04T13:05:07;10.50;99.90
15259;DHT22;34462;51.368;12.364;2024-02-04T13:07:35;10.50;99.90
15259;DHT22;34462;51.368;12.364;2024-02-04T13:10:04;10.60;99.90
15259;DHT22;34462;51.368;12.364;2024-02-04T13:12:33;10.60;99.90
15259;DHT22;34462;51.368;12.364;2024-02-04T13:15:02;10.50;99.90
15259;DHT22;34462;51.368;12.364;2024-02-04T13:17:32;10.50;99.90
15259;DHT22;34462;51.368;12.364;2024-02-04T13:20:00;10.40;99.90
15259;DHT22;34462;51.368;12.364;2024-02-04T13:22:29;10.50;99.90
15259;DHT22;34462;51.368;12.364;2024-02-04T13:24:58;10.40;99.90
15259;DHT22;34462;51.368;12.364;2024-02-04T13:27:26;10.40;99.90
15259;DHT22;34462;51.368;12.364;2024-02-04T13:29:55;10.40;99.90
15259;DHT22;34462;51.368;12.364;2024-02-04T13:32:23;10.40;99.90
15259;DHT22;34462;51.368;12.364;2024-02-04T13:34:53;10.40;99.90
15259;DHT22;34462;51.368;12.364;2024-02-04T13:37:39;10.40;99.90
15259;DHT22;34462;51.368;12.364;2024-02-04T13:40:09;10.40;99.90
15259;DHT22;34462;51.368;12.364;2024-02-04T13:42:37;10.40;99.90
15259;DHT22;34462;51.368;12.364;2024-02-04T13:45:06;10.40;99.90
15259;DHT22;34462;51.368;12.364;2024-02-04T13:47:35;10.40;99.90
15259;DHT22;34462;51.368;12.364;2024-02-04T13:50:06;10.40;99.90
15259;DHT22;34462;51.368;12.364;2024-02-04T13:52:35;10.30;99.90
15259;DHT22;34462;51.368;12.364;2024-02-04T13:55:05;10.20;99.90
15259;DHT22;34462;51.368;12.364;2024-02-04T13:57:34;10.20;99.90
15259;DHT22;34462;51.368;12.364;2024-02-04T14:00:04;10.20;99.90
15259;DHT22;34462;51.368;12.364;2024-02-04T14:02:34;10.20;99.90
15259;DHT22;34462;51.368;12.364;2024-02-04T14:05:03;10.20;99.90
15259;DHT22;34462;51.368;12.364;2024-02-04T14:07:34;10.20;99.90
15259;DHT22;34462;51.368;12.364;2024-02-04T14:10:02;10.10;99.90
15259;DHT22;34462;51.368;12.364;2024-02-04T14:12:31;10.10;99.90
15259;DHT22;34462;51.368;12.364;2024-02-04T14:15:00;10.00;99.90
15259;DHT22;34462;51.368;12.364;2024-02-04T14:17:28;10.00;99.90
15259;DHT22;34462;51.368;12.364;2024-02-04T14:19:56;10.00;99.90
15259;DHT22;34462;51.368;12.364;2024-02-04T14:22:25;9.90;99.90
15259;DHT22;34462;51.368;12.364;2024-02-04T14:24:56;9.90;99.90
15259;DHT22;34462;51.368;12.364;2024-02-04T14:27:24;9.90;99.90
15259;DHT22;34462;51.368;12.364;2024-02-04T14:29:52;10.00;99.90
15259;DHT22;34462;51.368;12.364;2024-02-04T14:32:21;9.90;99.90
15259;DHT22;34462;51.368;12.364;2024-02-04T14:34:50;9.90;99.90
15259;DHT22;34462;51.368;12.364;2024-02-04T14:37:20;9.90;99.90
15259;DHT22;34462;51.368;12.364;2024-02-04T14:39:49;9.80;99.90
15259;DHT22;34462;51.368;12.364;2024-02-04T14:42:18;9.80;99.90
15259;DHT22;34462;51.368;12.364;2024-02-04T14:44:47;9.80;99.90
15259;DHT22;34462;51.368;12.364;2024-02-04T14:47:15;9.70;99.90
15259;DHT22;34462;51.368;12.364;2024-02-04T14:49:43;9.80;99.90
15259;DHT22;34462;51.368;12.364;2024-02-04T14:52:11;9.80;99.90
15259;DHT22;34462;51.368;12.364;2024-02-04T14:54:41;9.80;99.90
15259;DHT22;34462;51.368;12.364;2024-02-04T14:57:10;9.70;99.90
15259;DHT22;34462;51.368;12.364;2024-02-04T14:59:40;9.70;99.90
15259;DHT22;34462;51.368;12.364;2024-02-04T15:02:09;9.70;99.90
15259;DHT22;34462;51.368;12.364;2024-02-04T15:04:38;9.70;99.90
15259;DHT22;34462;51.368;12.364;2024-02-04T15:07:06;9.70;99.90
15259;DHT22;34462;51.368;12.364;2024-02-04T15:09:35;9.60;99.90
15259;DHT22;34462;51.368;12.364;2024-02-04T15:12:04;9.70;99.90
15259;DHT22;34462;51.368;12.364;2024-02-04T15:14:33;9.60;99.90
15259;DHT22;34462;51.368;12.364;2024-02-04T15:17:04;9.60;99.90
15259;DHT22;34462;51.368;12.364;2024-02-04T15:19:33;9.60;99.90
15259;DHT22;34462;51.368;12.364;2024-02-04T15:22:03;9.50;99.90
15259;DHT22;34462;51.368;12.364;2024-02-04T15:24:32;9.60;99.90
15259;DHT22;34462;51.368;12.364;2024-02-04T15:27:01;9.50;99.90
15259;DHT22;34462;51.368;12.364;2024-02-04T15:29:34;9.50;99.90
15259;DHT22;34462;51.368;12.364;2024-02-04T15:32:08;9.50;99.90
15259;DHT22;34462;51.368;12.364;2024-02-04T15:34:41;9.50;99.90
15259;DHT22;34462;51.368;12.364;2024-02-04T15:37:10;9.40;99.90
15259;DHT22;34462;51.368;12.364;2024-02-04T15:39:38;9.50;99.90
15259;DHT22;34462;51.368;12.364;2024-02-04T15:42:07;9.50;99.90
15259;DHT22;34462;51.368;12.364;2024-02-04T15:44:35;9.50;99.90